New Vernon, New Jersey
Current Conditions -  °F | °C
As of 11:45 AM on Saturday 25 Oct 2014 (Local Time) from KMMU Reporting Station
Few Clouds Few Clouds  
Wind Chill: 63°   Ceiling: Unl
Heat Index: 63°   Visibility: 20mi
Dew Point: 41°   Wind: 0mph
Humidity: 45%   Direction: NA
Pressure: 29.82"   Gusts: NA
Location:  40.75°N, 74.5°W
Report Text: KMMU 251545Z 00000KT 20SM FEW250 17/05 A2982
Loading
Personal Weather Stations






























Interactive Weather Map
Tropical Storm Tracking
New forecast layout! Learn more

10-Day Weather Forecast

Advertisements
Track Severe Weather on mobile